Time;durP1;ratioP1;P1;durP2;ratioP2;P2;SDS_P1;SDS_P2;PMS_P1;PMS_P2;Temp;Humidity;BMP_temperature;BMP_pressure;BME280_temperature;BME280_humidity;BME280_pressure;Samples;Min_cycle;Max_cycle;Signal;HPM_P1;HPM_P2
2023/04/27 00:02:27;;;;;;;15.83;8.17;;;;;;;;;;6183566;23;20062;-90
2023/04/27 00:05:12;;;;;;;19.10;7.23;;;;;;;;;;6184896;23;20043;-88
2023/04/27 00:07:56;;;;;;;14.43;7.40;;;;;;;;;;6184744;23;20012;-88
2023/04/27 00:10:41;;;;;;;22.40;9.63;;;;;;;;;;6183337;23;20056;-87
2023/04/27 00:13:25;;;;;;;14.60;9.00;;;;;;;;;;6184210;23;20510;-88
2023/04/27 00:16:10;;;;;;;19.90;10.27;;;;;;;;;;6183642;23;20047;-88
2023/04/27 00:18:55;;;;;;;18.97;9.73;;;;;;;;;;6183133;23;20105;-89
2023/04/27 00:21:39;;;;;;;17.90;9.33;;;;;;;;;;6182810;23;20011;-88
2023/04/27 00:24:24;;;;;;;16.73;9.50;;;;;;;;;;6183408;23;20020;-88
2023/04/27 00:27:09;;;;;;;15.83;8.67;;;;;;;;;;6183378;23;20076;-88
2023/04/27 00:29:53;;;;;;;17.23;9.07;;;;;;;;;;6184126;23;20031;-88
2023/04/27 00:32:38;;;;;;;15.67;8.20;;;;;;;;;;6183790;23;20136;-88
2023/04/27 00:35:23;;;;;;;15.27;8.20;;;;;;;;;;6183380;23;20028;-88
2023/04/27 00:38:08;;;;;;;17.67;8.77;;;;;;;;;;6183273;23;20088;-87
2023/04/27 00:40:52;;;;;;;16.73;9.30;;;;;;;;;;6161754;23;20040;-88
2023/04/27 00:43:43;;;;;;;16.60;8.30;;;;;;;;;;6183931;23;20028;-88
2023/04/27 00:46:28;;;;;;;16.43;8.50;;;;;;;;;;6162183;23;20015;-88
2023/04/27 00:49:13;;;;;;;16.90;7.50;;;;;;;;;;6162544;23;20016;-88
2023/04/27 00:51:58;;;;;;;12.73;7.33;;;;;;;;;;6161603;23;20020;-88
2023/04/27 00:54:43;;;;;;;13.87;7.07;;;;;;;;;;6182311;23;20063;-88
2023/04/27 00:57:28;;;;;;;13.53;6.90;;;;;;;;;;6184369;23;20012;-88
2023/04/27 01:00:13;;;;;;;13.67;6.27;;;;;;;;;;6182933;23;20491;-88
2023/04/27 01:02:57;;;;;;;15.90;7.00;;;;;;;;;;6182507;23;20016;-88
2023/04/27 01:05:42;;;;;;;13.70;7.23;;;;;;;;;;6182556;23;20067;-88
2023/04/27 01:08:27;;;;;;;13.60;6.40;;;;;;;;;;6184299;23;20383;-88
2023/04/27 01:11:12;;;;;;;11.93;6.50;;;;;;;;;;6183074;23;20387;-89
2023/04/27 01:13:57;;;;;;;9.47;6.07;;;;;;;;;;6182236;23;20028;-88
2023/04/27 01:16:43;;;;;;;14.87;6.13;;;;;;;;;;6183677;23;20020;-88
2023/04/27 01:19:27;;;;;;;12.00;5.83;;;;;;;;;;6184147;23;20020;-88
2023/04/27 01:22:14;;;;;;;8.27;5.13;;;;;;;;;;6162075;23;20016;-88
2023/04/27 01:24:58;;;;;;;14.70;6.87;;;;;;;;;;6182391;23;20016;-88
2023/04/27 01:27:43;;;;;;;11.17;5.93;;;;;;;;;;6183393;23;20032;-89
2023/04/27 01:30:28;;;;;;;12.63;6.07;;;;;;;;;;6184183;23;20434;-88
2023/04/27 01:33:13;;;;;;;13.87;5.90;;;;;;;;;;6184085;23;20056;-88
2023/04/27 01:35:58;;;;;;;13.53;6.23;;;;;;;;;;6183367;23;20039;-89
2023/04/27 01:38:43;;;;;;;13.67;6.37;;;;;;;;;;6186739;23;20100;-87
2023/04/27 01:41:28;;;;;;;10.03;5.90;;;;;;;;;;6191596;23;20027;-87
2023/04/27 01:44:12;;;;;;;11.37;5.67;;;;;;;;;;6170486;23;20096;-88
2023/04/27 01:46:57;;;;;;;13.20;6.33;;;;;;;;;;6190859;23;20066;-88
2023/04/27 01:49:41;;;;;;;13.70;6.07;;;;;;;;;;6191316;23;20102;-91
2023/04/27 01:52:27;;;;;;;11.63;6.07;;;;;;;;;;6213957;23;20450;-87
2023/04/27 01:55:12;;;;;;;12.97;5.87;;;;;;;;;;6191486;23;20020;-87
2023/04/27 01:57:56;;;;;;;12.03;6.60;;;;;;;;;;6213353;23;20062;-87
2023/04/27 02:00:41;;;;;;;13.17;5.80;;;;;;;;;;6191387;23;20015;-88
2023/04/27 02:03:25;;;;;;;11.73;6.20;;;;;;;;;;6213513;23;20039;-88
2023/04/27 02:06:10;;;;;;;13.80;6.47;;;;;;;;;;6191183;23;20015;-88
2023/04/27 02:08:54;;;;;;;10.77;5.47;;;;;;;;;;6190797;23;20074;-88
2023/04/27 02:11:39;;;;;;;14.13;6.20;;;;;;;;;;6213780;23;20011;-88
2023/04/27 02:14:24;;;;;;;14.67;7.77;;;;;;;;;;6213733;23;20032;-88
2023/04/27 02:17:09;;;;;;;13.17;6.43;;;;;;;;;;6213039;23;20011;-88
2023/04/27 02:19:54;;;;;;;12.60;7.53;;;;;;;;;;6190743;23;20019;-88
2023/04/27 02:22:43;;;;;;;18.87;6.63;;;;;;;;;;6191506;23;20073;-87
2023/04/27 02:25:28;;;;;;;11.47;6.53;;;;;;;;;;6213645;23;20070;-87
2023/04/27 02:28:13;;;;;;;13.13;6.50;;;;;;;;;;6213549;23;20092;-88
2023/04/27 02:30:58;;;;;;;12.47;5.83;;;;;;;;;;6169755;23;20019;-87
2023/04/27 02:33:42;;;;;;;8.93;5.73;;;;;;;;;;6213707;23;20051;-87
2023/04/27 02:36:27;;;;;;;14.30;6.50;;;;;;;;;;6214389;23;20031;-88
2023/04/27 02:39:11;;;;;;;13.47;6.53;;;;;;;;;;6183576;23;20398;-87
2023/04/27 02:41:56;;;;;;;17.83;6.43;;;;;;;;;;6163046;23;20019;-87
2023/04/27 02:44:41;;;;;;;15.40;7.03;;;;;;;;;;6184315;23;20020;-88
2023/04/27 02:47:26;;;;;;;11.80;6.20;;;;;;;;;;6163485;23;20339;-87
2023/04/27 02:50:12;;;;;;;8.40;5.30;;;;;;;;;;6183782;23;20559;-88
2023/04/27 02:52:57;;;;;;;15.67;6.40;;;;;;;;;;6183590;23;20031;-88
2023/04/27 02:55:48;;;;;;;15.13;6.20;;;;;;;;;;6185644;23;20024;-88
2023/04/27 02:58:32;;;;;;;10.37;6.20;;;;;;;;;;6185577;23;20396;-87
2023/04/27 03:01:17;;;;;;;10.63;5.33;;;;;;;;;;6184213;23;20100;-87
2023/04/27 03:04:02;;;;;;;12.70;6.37;;;;;;;;;;6163077;23;20348;-87
2023/04/27 03:06:47;;;;;;;10.20;5.87;;;;;;;;;;6184187;23;20380;-87
2023/04/27 03:09:31;;;;;;;14.97;7.63;;;;;;;;;;6184379;23;20031;-87
2023/04/27 03:12:16;;;;;;;10.40;5.90;;;;;;;;;;6185023;23;20096;-87
2023/04/27 03:15:01;;;;;;;10.33;6.33;;;;;;;;;;6184957;23;20466;-88
2023/04/27 03:17:45;;;;;;;14.50;6.10;;;;;;;;;;6185482;23;20351;-87
2023/04/27 03:20:30;;;;;;;13.57;6.50;;;;;;;;;;6185405;23;20020;-88
2023/04/27 03:23:15;;;;;;;13.53;6.13;;;;;;;;;;6185049;23;20020;-87
2023/04/27 03:26:00;;;;;;;11.97;6.10;;;;;;;;;;6184638;23;20463;-88
2023/04/27 03:28:45;;;;;;;13.67;6.80;;;;;;;;;;6184163;23;20024;-87
2023/04/27 03:31:29;;;;;;;11.43;5.40;;;;;;;;;;6184230;23;20047;-87
2023/04/27 03:34:14;;;;;;;11.20;5.77;;;;;;;;;;6184489;23;20072;-87
2023/04/27 03:36:59;;;;;;;10.93;6.03;;;;;;;;;;6183215;23;20096;-87
2023/04/27 03:39:44;;;;;;;13.47;5.93;;;;;;;;;;6163039;23;20028;-87
2023/04/27 03:42:29;;;;;;;12.03;5.90;;;;;;;;;;6185070;23;20020;-87
2023/04/27 03:45:15;;;;;;;9.77;5.33;;;;;;;;;;6183422;23;20105;-87
2023/04/27 03:48:00;;;;;;;13.17;5.83;;;;;;;;;;6182399;23;20068;-88
2023/04/27 03:50:45;;;;;;;14.07;6.00;;;;;;;;;;6183903;23;20447;-87
2023/04/27 03:53:30;;;;;;;11.03;5.80;;;;;;;;;;6183779;23;20104;-87
2023/04/27 03:56:15;;;;;;;11.03;5.50;;;;;;;;;;6183143;23;20063;-87
2023/04/27 03:58:59;;;;;;;12.13;6.10;;;;;;;;;;6183452;23;20332;-91
2023/04/27 04:01:44;;;;;;;11.07;6.03;;;;;;;;;;6185037;23;20044;-87
2023/04/27 04:04:29;;;;;;;12.93;5.77;;;;;;;;;;6183794;23;20020;-87
2023/04/27 04:07:13;;;;;;;10.53;6.13;;;;;;;;;;6184426;23;20056;-87
2023/04/27 04:09:58;;;;;;;13.23;6.40;;;;;;;;;;6183459;23;20064;-87
2023/04/27 04:12:42;;;;;;;13.57;6.07;;;;;;;;;;6162887;23;20023;-87
2023/04/27 04:15:27;;;;;;;10.93;5.73;;;;;;;;;;6183442;23;20023;-87
2023/04/27 04:18:11;;;;;;;13.30;7.03;;;;;;;;;;6184187;23;20016;-87
2023/04/27 04:20:56;;;;;;;10.63;5.97;;;;;;;;;;6183616;23;20502;-87
2023/04/27 04:23:40;;;;;;;13.27;6.73;;;;;;;;;;6183803;23;20020;-87
2023/04/27 04:26:26;;;;;;;12.93;6.17;;;;;;;;;;6182976;23;20055;-87
2023/04/27 04:29:11;;;;;;;11.80;6.50;;;;;;;;;;6182894;23;20032;-87
2023/04/27 04:31:55;;;;;;;11.03;6.37;;;;;;;;;;6184697;23;20092;-87
2023/04/27 04:34:41;;;;;;;13.47;7.20;;;;;;;;;;6184681;23;20074;-87
2023/04/27 04:37:25;;;;;;;12.43;7.10;;;;;;;;;;6182860;23;20016;-87
2023/04/27 04:40:10;;;;;;;11.47;6.47;;;;;;;;;;6182789;23;20087;-86
2023/04/27 04:42:55;;;;;;;13.67;7.23;;;;;;;;;;6183394;23;20024;-87
2023/04/27 04:45:40;;;;;;;11.27;6.63;;;;;;;;;;6184610;23;20039;-88
2023/04/27 04:48:25;;;;;;;13.80;7.00;;;;;;;;;;6183869;23;20592;-87
2023/04/27 04:51:09;;;;;;;11.43;6.23;;;;;;;;;;6183855;23;20080;-87
2023/04/27 04:53:54;;;;;;;11.10;6.00;;;;;;;;;;6162313;23;20091;-87
2023/04/27 04:56:38;;;;;;;11.17;6.33;;;;;;;;;;6184522;23;20015;-87
2023/04/27 04:59:23;;;;;;;11.33;5.93;;;;;;;;;;6181958;23;20113;-87
2023/04/27 05:02:07;;;;;;;13.73;7.33;;;;;;;;;;6182708;23;20020;-90
2023/04/27 05:04:52;;;;;;;13.27;7.60;;;;;;;;;;6183176;23;20482;-87
2023/04/27 05:07:37;;;;;;;13.20;8.20;;;;;;;;;;6183117;23;20070;-87
2023/04/27 05:10:21;;;;;;;12.47;7.73;;;;;;;;;;6183621;23;20015;-88
2023/04/27 05:13:06;;;;;;;15.03;7.50;;;;;;;;;;6187818;23;20016;-87
2023/04/27 05:15:51;;;;;;;13.53;7.43;;;;;;;;;;6182931;23;20023;-88
2023/04/27 05:18:35;;;;;;;12.20;6.97;;;;;;;;;;6182879;23;20408;-88
2023/04/27 05:21:21;;;;;;;17.23;7.40;;;;;;;;;;6161281;23;20020;-88
2023/04/27 05:24:05;;;;;;;17.13;7.97;;;;;;;;;;6182461;23;20099;-87
2023/04/27 05:26:50;;;;;;;14.03;7.20;;;;;;;;;;6182849;23;20020;-87
2023/04/27 05:29:35;;;;;;;14.20;7.13;;;;;;;;;;6183585;23;20730;-87
2023/04/27 05:32:19;;;;;;;12.03;7.37;;;;;;;;;;6181810;23;20016;-87
2023/04/27 05:35:04;;;;;;;12.70;7.23;;;;;;;;;;6161928;23;20071;-87
2023/04/27 05:37:49;;;;;;;11.80;6.87;;;;;;;;;;6182707;23;20020;-87
2023/04/27 05:40:34;;;;;;;14.47;7.17;;;;;;;;;;6181878;23;20027;-87
2023/04/27 05:43:19;;;;;;;13.70;7.40;;;;;;;;;;6183214;23;20447;-88
2023/04/27 05:46:04;;;;;;;12.57;7.03;;;;;;;;;;6183808;23;20351;-85
2023/04/27 05:48:49;;;;;;;11.17;6.30;;;;;;;;;;6183356;23;20012;-89
2023/04/27 05:51:33;;;;;;;11.40;6.47;;;;;;;;;;6181792;23;20016;-87
2023/04/27 05:54:18;;;;;;;14.37;7.30;;;;;;;;;;6181531;23;20024;-85
2023/04/27 05:57:02;;;;;;;16.93;7.13;;;;;;;;;;6182422;23;20012;-87
2023/04/27 05:59:47;;;;;;;10.93;7.10;;;;;;;;;;6183656;23;20016;-86
2023/04/27 06:02:32;;;;;;;10.80;6.77;;;;;;;;;;6182761;23;20060;-87
2023/04/27 06:05:16;;;;;;;14.00;7.20;;;;;;;;;;6183299;23;20483;-90
2023/04/27 06:08:01;;;;;;;13.00;7.30;;;;;;;;;;6182418;23;20328;-86
2023/04/27 06:10:46;;;;;;;11.17;6.37;;;;;;;;;;6183353;23;20430;-87
2023/04/27 06:13:32;;;;;;;14.43;5.97;;;;;;;;;;6182718;23;20028;-90
2023/04/27 06:16:16;;;;;;;12.53;6.30;;;;;;;;;;6181756;23;20015;-89
2023/04/27 06:19:01;;;;;;;13.33;6.50;;;;;;;;;;6183436;23;20071;-88
2023/04/27 06:21:45;;;;;;;11.18;5.97;;;;;;;;;;6161452;23;20097;-89
2023/04/27 06:24:30;;;;;;;11.25;5.40;;;;;;;;;;6181451;23;20020;-88
2023/04/27 06:27:15;;;;;;;9.75;5.82;;;;;;;;;;6161458;23;20103;-88
2023/04/27 06:30:00;;;;;;;11.43;6.10;;;;;;;;;;6183539;23;20020;-88
2023/04/27 06:32:44;;;;;;;9.30;5.47;;;;;;;;;;6183206;23;20016;-90
2023/04/27 06:35:30;;;;;;;8.70;6.25;;;;;;;;;;6181589;23;20032;-90
2023/04/27 06:38:15;;;;;;;8.90;5.28;;;;;;;;;;6182221;23;20024;-90
2023/04/27 06:41:00;;;;;;;8.82;4.60;;;;;;;;;;6183499;23;20032;-91
2023/04/27 06:43:45;;;;;;;9.00;4.15;;;;;;;;;;6182881;23;20082;-90
2023/04/27 06:46:29;;;;;;;11.45;4.72;;;;;;;;;;6182820;23;20016;-89
2023/04/27 06:49:14;;;;;;;8.18;4.38;;;;;;;;;;6182432;23;20016;-90
2023/04/27 06:51:58;;;;;;;7.78;4.38;;;;;;;;;;6182077;23;20020;-90
2023/04/27 06:54:43;;;;;;;11.38;4.47;;;;;;;;;;6181458;23;20024;-89
2023/04/27 06:57:27;;;;;;;8.35;3.63;;;;;;;;;;6181626;23;20016;-89
2023/04/27 07:00:12;;;;;;;6.65;3.85;;;;;;;;;;6182018;23;20016;-91
2023/04/27 07:02:57;;;;;;;7.20;3.50;;;;;;;;;;6182206;23;20067;-88
2023/04/27 07:05:42;;;;;;;7.75;3.55;;;;;;;;;;6182189;23;20060;-89
2023/04/27 07:08:27;;;;;;;6.13;3.45;;;;;;;;;;6182629;23;20016;-87
2023/04/27 07:11:12;;;;;;;7.63;2.70;;;;;;;;;;6183361;23;20020;-88
2023/04/27 07:13:57;;;;;;;6.40;3.03;;;;;;;;;;6161007;23;20047;-88
2023/04/27 07:16:43;;;;;;;8.65;3.10;;;;;;;;;;6181499;23;20051;-89
2023/04/27 07:19:27;;;;;;;6.30;3.03;;;;;;;;;;6181373;23;20020;-91
2023/04/27 07:22:12;;;;;;;9.77;3.20;;;;;;;;;;6182597;23;20331;-88
2023/04/27 07:24:56;;;;;;;4.20;2.65;;;;;;;;;;6185262;23;20020;-90
2023/04/27 07:27:41;;;;;;;4.50;2.40;;;;;;;;;;6182863;23;20089;-90
2023/04/27 07:30:29;;;;;;;6.13;2.83;;;;;;;;;;6183715;23;20047;-88
2023/04/27 07:33:15;;;;;;;5.45;2.65;;;;;;;;;;6184042;23;20078;-92
2023/04/27 07:36:00;;;;;;;5.78;2.33;;;;;;;;;;6183878;23;20036;-87
2023/04/27 07:38:45;;;;;;;7.32;2.67;;;;;;;;;;6186802;23;20100;-91
2023/04/27 07:41:29;;;;;;;5.15;3.13;;;;;;;;;;6191555;23;20147;-89
2023/04/27 07:44:14;;;;;;;8.85;2.70;;;;;;;;;;6214312;23;20020;-90
2023/04/27 07:46:59;;;;;;;6.20;2.15;;;;;;;;;;6192722;23;20070;-91
2023/04/27 07:49:45;;;;;;;4.93;2.00;;;;;;;;;;6214465;23;20031;-91
2023/04/27 07:52:29;;;;;;;4.43;2.25;;;;;;;;;;6214755;23;20016;-89
2023/04/27 07:55:14;;;;;;;4.72;2.30;;;;;;;;;;6214912;23;20019;-89
2023/04/27 07:57:59;;;;;;;3.22;2.35;;;;;;;;;;6214768;23;20466;-91
2023/04/27 08:00:44;;;;;;;5.07;2.10;;;;;;;;;;6191333;23;20019;-88
2023/04/27 08:03:29;;;;;;;4.30;2.10;;;;;;;;;;6214656;23;20023;-89
2023/04/27 08:06:13;;;;;;;6.25;2.20;;;;;;;;;;6192400;23;20020;-90
2023/04/27 08:08:59;;;;;;;2.58;1.70;;;;;;;;;;6214218;23;20032;-89
2023/04/27 08:11:44;;;;;;;4.40;2.05;;;;;;;;;;6191225;23;20016;-87
2023/04/27 08:14:29;;;;;;;2.75;1.75;;;;;;;;;;6192098;23;20408;-87
2023/04/27 08:17:13;;;;;;;6.35;2.10;;;;;;;;;;6192457;23;20100;-88
2023/04/27 08:19:58;;;;;;;4.88;2.20;;;;;;;;;;6213363;23;20012;-87
2023/04/27 08:22:42;;;;;;;5.65;2.00;;;;;;;;;;6191258;23;20015;-88
2023/04/27 08:25:27;;;;;;;4.60;2.10;;;;;;;;;;6214948;23;20055;-89
2023/04/27 08:28:12;;;;;;;4.95;2.20;;;;;;;;;;6216634;23;20019;-89
2023/04/27 08:30:57;;;;;;;3.85;2.38;;;;;;;;;;6214448;23;20039;-91
2023/04/27 08:33:41;;;;;;;5.05;2.40;;;;;;;;;;6212147;23;20019;-88
2023/04/27 08:36:27;;;;;;;4.43;2.05;;;;;;;;;;6192111;23;20027;-88
2023/04/27 08:39:12;;;;;;;6.28;2.25;;;;;;;;;;6214455;23;20151;-88
2023/04/27 08:41:57;;;;;;;6.20;2.90;;;;;;;;;;6214023;23;20024;-89
2023/04/27 08:44:42;;;;;;;5.60;2.60;;;;;;;;;;6213829;23;20020;-89
2023/04/27 08:47:27;;;;;;;8.48;2.65;;;;;;;;;;6192172;23;20066;-88
2023/04/27 08:50:12;;;;;;;5.05;2.40;;;;;;;;;;6192291;23;20016;-87
2023/04/27 08:52:56;;;;;;;5.63;2.60;;;;;;;;;;6191425;23;20336;-88
2023/04/27 08:55:41;;;;;;;5.18;2.22;;;;;;;;;;6214108;23;20058;-90
2023/04/27 08:58:36;;;;;;;6.18;2.35;;;;;;;;;;6171134;23;20023;-87
2023/04/27 09:01:22;;;;;;;6.93;2.53;;;;;;;;;;6214494;23;20015;-87
2023/04/27 09:04:06;;;;;;;8.35;3.05;;;;;;;;;;6191821;23;20446;-87
2023/04/27 09:06:51;;;;;;;3.92;2.20;;;;;;;;;;6213956;23;20071;-88
2023/04/27 09:09:35;;;;;;;4.53;1.83;;;;;;;;;;6214644;23;20019;-87
2023/04/27 09:12:21;;;;;;;4.20;1.80;;;;;;;;;;6214541;23;20015;-87
2023/04/27 09:15:07;;;;;;;4.32;1.85;;;;;;;;;;6191317;23;20019;-87
2023/04/27 09:17:55;;;;;;;5.90;2.13;;;;;;;;;;6191505;23;20040;-87
2023/04/27 09:20:46;;;;;;;4.35;2.25;;;;;;;;;;6214304;23;20018;-87
2023/04/27 09:23:32;;;;;;;5.80;2.67;;;13.50;89.90;;;;;;6214472;23;20082;-87
2023/04/27 09:26:21;;;;;;;7.25;2.75;;;;;;;;;;6191972;23;20055;-88
2023/04/27 09:29:06;;;;;;;5.22;2.92;;;;;;;;;;6213586;23;20553;-87
2023/04/27 09:31:51;;;;;;;6.78;2.60;;;;;;;;;;6191236;23;20036;-87
2023/04/27 09:34:42;;;;;;;6.15;2.30;;;;;;;;;;6191533;23;20160;-88
2023/04/27 09:37:27;;;;;;;9.30;3.08;;;;;;;;;;6191687;23;20104;-87
2023/04/27 09:40:13;;;;;;;6.70;2.08;;;;;;;;;;6192125;23;20023;-87
2023/04/27 09:43:02;;;;;;;10.63;2.72;;;;;;;;;;6191081;23;20040;-87
2023/04/27 09:45:48;;;;;;;5.45;2.63;;;;;;;;;;6191578;23;20119;-92
2023/04/27 09:48:32;;;;;;;5.65;2.78;;;;;;;;;;6191790;23;20450;-88
2023/04/27 09:51:17;;;;;;;7.68;3.03;;;;;;;;;;6214307;23;20067;-89
2023/04/27 09:54:03;;;;;;;4.30;3.00;;;;;;;;;;6191329;23;20080;-88
2023/04/27 09:56:50;;;;;;;8.25;3.35;;;;;;;;;;6214156;23;20019;-93
2023/04/27 09:59:48;;;;;;;8.13;3.10;;;;;;;;;;6191422;23;20019;-89
2023/04/27 10:02:40;;;;;;;8.93;3.72;;;;;;;;;;6213918;23;20011;-88
2023/04/27 10:05:25;;;;;;;7.22;3.00;;;;;;;;;;6191615;23;20110;-87
2023/04/27 10:08:10;;;;;;;5.25;2.80;;;;;;;;;;6213377;23;20102;-86
2023/04/27 10:10:55;;;;;;;10.10;4.70;;;;;;;;;;6213263;23;20015;-93
2023/04/27 10:13:50;;;;;;;5.40;3.10;;;;;;;;;;6191240;23;20019;-93
2023/04/27 10:16:47;;;;;;;7.68;3.22;;;;;;;;;;6216763;23;20032;-94
2023/04/27 10:19:32;;;;;;;8.77;3.65;;;;;;;;;;6189660;23;20061;-93
2023/04/27 10:22:17;;;;;;;6.10;3.25;;;;;;;;;;6190747;23;20348;-89
2023/04/27 10:25:12;;;;;;;6.63;3.08;;;;;;;;;;6213095;23;20028;-90
2023/04/27 10:28:01;;;;;;;5.93;2.78;;;;;;;;;;6213092;23;20072;-87
2023/04/27 10:30:47;;;;;;;6.10;3.22;;;;;;;;;;6191025;23;20014;-89
2023/04/27 10:33:42;;;;;;;8.45;3.25;;;;;;;;;;6212677;23;20059;-87
2023/04/27 10:36:33;;;;;;;9.45;4.25;;;;;;;;;;6189274;23;20067;-93
2023/04/27 10:39:21;;;;;;;8.10;3.80;;;;;;;;;;6190048;23;20023;-92
2023/04/27 10:42:06;;;;;;;6.47;3.22;;;;;;;;;;6189684;23;20098;-90
2023/04/27 10:44:54;;;;;;;6.32;3.13;;;;;;;;;;6212758;23;20427;-88
2023/04/27 10:47:44;;;;;;;6.68;2.95;;;;;;;;;;6190243;23;20015;-88
2023/04/27 10:50:30;;;;;;;8.15;3.33;;;;;;;;;;6212888;23;20063;-92
2023/04/27 10:53:16;;;;;;;5.68;3.35;;;;;;;;;;6212982;23;20020;-88
2023/04/27 10:56:01;;;;;;;7.50;3.22;;;;;;;;;;6190232;23;20051;-87
2023/04/27 10:58:46;;;;;;;5.45;3.22;;;;;;;;;;6215297;23;20058;-88
2023/04/27 11:01:31;;;;;;;9.43;3.30;;;;;;;;;;6172290;23;20016;-87
2023/04/27 11:04:17;;;;;;;8.63;3.22;;;;;;;;;;6215075;23;20035;-89
2023/04/27 11:07:03;;;;;;;7.07;3.28;;;;;;;;;;6192628;23;20044;-88
2023/04/27 11:09:48;;;;;;;8.90;3.10;;;;;;;;;;6215400;23;20501;-88
2023/04/27 11:12:33;;;;;;;7.32;3.05;;;;;;;;;;6193107;23;20495;-89
2023/04/27 11:15:18;;;;;;;7.30;4.03;;;;;;;;;;6214864;23;20023;-90
2023/04/27 11:18:06;;;;;;;6.65;3.15;;;;;;;;;;6214742;23;20096;-91
2023/04/27 11:20:51;;;;;;;5.13;3.08;;;;;;;;;;6193005;23;20042;-90
2023/04/27 11:23:40;;;;;;;6.22;2.97;;;;;;;;;;6192671;23;20066;-90
2023/04/27 11:26:25;;;;;;;6.30;3.20;;;;;;;;;;6214710;23;20062;-88
2023/04/27 11:29:12;;;;;;;5.13;2.80;;;;;;;;;;6191680;23;20393;-88
2023/04/27 11:31:57;;;;;;;7.90;3.38;;;;;;;;;;6172517;23;20015;-88
2023/04/27 11:34:48;;;;;;;6.47;2.97;;;;;;;;;;6192227;23;20023;-88
2023/04/27 11:37:33;;;;;;;5.57;3.22;;;;;;;;;;6192498;23;20015;-89
2023/04/27 11:40:17;;;;;;;6.95;3.30;;;;;;;;;;6191720;23;20147;-88
2023/04/27 11:43:03;;;;;;;9.15;2.90;;;;;;;;;;6192752;23;20090;-89
2023/04/27 11:45:47;;;;;;;8.77;3.10;;;;;;;;;;6215143;23;20066;-88
2023/04/27 11:48:32;;;;;;;9.30;3.53;;;;;;;;;;6214988;23;20074;-92
2023/04/27 11:51:16;;;;;;;6.03;3.10;;;;;;;;;;6214447;23;20535;-91
2023/04/27 11:54:02;;;;;;;5.07;3.25;;;;;;;;;;6215020;23;20398;-91
2023/04/27 11:56:46;;;;;;;5.35;2.83;;;;;;;;;;6171639;23;20079;-91
2023/04/27 11:59:31;;;;;;;7.53;3.13;;;;;;;;;;6214545;23;20087;-91
2023/04/27 12:02:16;;;;;;;6.63;3.75;;;;;;;;;;6191803;23;20019;-90
2023/04/27 12:05:00;;;;;;;5.90;3.50;;;;;;;;;;6193268;23;20023;-90
2023/04/27 12:07:45;;;;;;;9.25;3.15;;;;;;;;;;6215211;23;20027;-90
2023/04/27 12:10:29;;;;;;;5.90;3.47;;;;;;;;;;6170745;23;20079;-91
2023/04/27 12:13:15;;;;;;;7.22;3.70;;;;;;;;;;6170903;23;20063;-89
2023/04/27 12:15:59;;;;;;;6.13;3.35;;;;;;;;;;6171363;23;20023;-91
2023/04/27 12:18:44;;;;;;;5.20;3.25;;;;;;;;;;6193442;23;20023;-90
2023/04/27 12:21:30;;;;;;;7.15;3.72;;;;;;;;;;6191619;23;20071;-90
2023/04/27 12:24:15;;;;;;;5.97;3.67;;;;;;;;;;6191715;23;20047;-88
2023/04/27 12:27:00;;;;;;;6.95;3.40;;;;;;;;;;6214752;23;20079;-87
2023/04/27 12:29:44;;;;;;;7.40;4.07;;;;;;;;;;6171533;23;20031;-87
2023/04/27 12:32:29;;;;;;;7.13;3.33;;;;;;;;;;6170620;23;20493;-87
2023/04/27 12:35:14;;;;;;;7.38;3.88;;;;;;;;;;6191267;23;20466;-87
2023/04/27 12:37:58;;;;;;;7.57;3.70;;;;;;;;;;6192181;23;20027;-88
2023/04/27 12:40:43;;;;;;;10.75;4.32;;;;;;;;;;6214778;23;20059;-89
2023/04/27 12:43:27;;;;;;;8.80;4.65;;;;;;;;;;6191730;23;20067;-91
2023/04/27 12:46:12;;;;;;;6.57;4.03;;;;;;;;;;6189943;23;20047;-89
2023/04/27 12:48:57;;;;;;;7.45;3.53;;;;;;;;;;6191965;23;20454;-87
2023/04/27 12:51:42;;;;;;;6.15;3.70;;;;;;;;;;6191864;23;20055;-87
2023/04/27 12:54:26;;;;;;;7.22;4.50;;;;;;;;;;6213711;23;20066;-87
2023/04/27 12:57:11;;;;;;;8.70;4.30;;;;;;;;;;6191837;23;20028;-87
2023/04/27 12:59:56;;;;;;;7.28;4.00;;;;;;;;;;6171068;23;20019;-86
2023/04/27 13:02:42;;;;;;;7.95;3.90;;;;;;;;;;6191735;23;20091;-87
2023/04/27 13:05:27;;;;;;;10.57;3.88;;;;;;;;;;6213958;23;20378;-90
2023/04/27 13:08:11;;;;;;;9.52;3.78;;;;;;;;;;6191928;23;20043;-87
2023/04/27 13:10:56;;;;;;;6.95;4.00;;;;;;;;;;6214511;23;20402;-88
2023/04/27 13:13:40;;;;;;;7.88;4.07;;;;;;;;;;6191179;23;20019;-88
2023/04/27 13:16:25;;;;;;;6.03;3.75;;;;;;;;;;6190994;23;20177;-88
2023/04/27 13:19:10;;;;;;;5.75;3.20;;;;;;;;;;6191521;23;20015;-88
2023/04/27 13:21:55;;;;;;;7.50;3.70;;;;;;;;;;6191806;23;20150;-90
2023/04/27 13:24:40;;;;;;;5.90;4.20;;;;;;;;;;6170967;23;20469;-91
2023/04/27 13:27:27;;;;;;;9.43;4.05;;;;;;;;;;6170110;23;20391;-90
2023/04/27 13:30:12;;;;;;;12.32;4.45;;;;;;;;;;6171248;23;20083;-89
2023/04/27 13:32:56;;;;;;;6.68;4.57;;;;;;;;;;6191471;23;20067;-90
2023/04/27 13:35:41;;;;;;;10.63;5.43;;;;;;;;;;6213242;23;20019;-91
2023/04/27 13:38:26;;;;;;;8.68;5.10;;;;;;;;;;6213334;23;20019;-89
2023/04/27 13:41:11;;;;;;;9.95;4.72;;;;;;;;;;6182850;23;20048;-91
2023/04/27 13:43:55;;;;;;;9.63;5.07;;;;;;;;;;6184075;23;20028;-89
2023/04/27 13:46:40;;;;;;;9.98;4.55;;;;;;;;;;6182421;23;20076;-89
2023/04/27 13:49:24;;;;;;;8.32;4.25;;;;;;;;;;6183356;23;20044;-89
2023/04/27 13:52:11;;;;;;;7.43;3.97;;;;;;;;;;6184626;23;20020;-89
2023/04/27 13:54:56;;;;;;;8.60;4.65;;;;;;;;;;6186699;23;20020;-90
2023/04/27 13:57:41;;;;;;;8.98;4.40;;;;;;;;;;6184923;23;20020;-89
2023/04/27 14:00:27;;;;;;;10.43;5.28;;;;;;;;;;6183442;23;20020;-90
2023/04/27 14:03:12;;;;;;;5.80;4.30;;;;;;;;;;6184385;23;20345;-90
2023/04/27 14:05:56;;;;;;;8.05;4.72;;;;;;;;;;6184023;23;20020;-91
2023/04/27 14:08:41;;;;;;;7.88;3.95;;;;;;;;;;6184340;23;20020;-92
2023/04/27 14:11:25;;;;;;;7.43;4.40;;;;;;;;;;6183398;23;20051;-89
2023/04/27 14:14:10;;;;;;;7.78;3.97;;;;;;;;;;6184800;23;20343;-89
2023/04/27 14:16:55;;;;;;;12.57;4.78;;;;;;;;;;6184841;23;20024;-90
2023/04/27 14:19:41;;;;;;;10.85;4.40;;;;;;;;;;6183267;23;20017;-89
2023/04/27 14:22:26;;;;;;;8.57;4.68;;;;;;;;;;6182490;23;20067;-92
2023/04/27 14:25:11;;;;;;;8.48;4.80;;;;;;;;;;6182517;23;20023;-88
2023/04/27 14:27:55;;;;;;;8.27;3.90;;;;;;;;;;6183677;23;20075;-87
2023/04/27 14:30:40;;;;;;;10.18;4.45;;;;;;;;;;6181712;23;20450;-88
2023/04/27 14:33:24;;;;;;;8.60;4.22;;;;;;;;;;6183529;23;20024;-89
2023/04/27 14:36:09;;;;;;;8.30;4.00;;;;;;;;;;6161595;23;20152;-91
2023/04/27 14:38:54;;;;;;;7.00;3.97;;;;;;;;;;6186343;23;20063;-89
2023/04/27 14:41:39;;;;;;;9.77;4.70;;;;;;;;;;6213252;23;20023;-87
2023/04/27 14:44:23;;;;;;;7.43;4.03;;;;;;;;;;6170373;23;20019;-86
2023/04/27 14:47:08;;;;;;;8.98;4.55;;;;;;;;;;6213740;23;20035;-87
2023/04/27 14:49:53;;;;;;;9.30;5.03;;;;;;;;;;6169682;23;20020;-87
2023/04/27 14:52:38;;;;;;;10.10;4.47;;;;;;;;;;6190421;23;20015;-86
2023/04/27 14:55:23;;;;;;;9.85;4.30;;;;;;;;;;6213594;23;20017;-87
2023/04/27 14:58:08;;;;;;;7.60;4.50;;;;;;;;;;6190694;23;20019;-87
2023/04/27 15:00:52;;;;;;;11.77;4.93;;;;;;;;;;6213087;23;20067;-89
2023/04/27 15:03:37;;;;;;;8.15;4.38;;;;;;;;;;6190219;23;20375;-89
2023/04/27 15:06:23;;;;;;;10.43;4.55;;;;;;;;;;6213556;23;20067;-88
2023/04/27 15:09:08;;;;;;;7.72;4.60;;;;;;;;;;6213615;23;20015;-87
2023/04/27 15:11:52;;;;;;;8.65;4.97;;;;;;;;;;6190418;23;20151;-91
2023/04/27 15:14:37;;;;;;;9.75;3.95;;;;;;;;;;6190471;23;20093;-89
2023/04/27 15:17:21;;;;;;;6.88;4.20;;;;;;;;;;6189311;23;20371;-90
2023/04/27 15:20:06;;;;;;;9.65;4.88;;;;;;;;;;6213317;23;20098;-89
2023/04/27 15:22:51;;;;;;;10.30;4.97;;;;;;;;;;6170305;23;20019;-88
2023/04/27 15:25:36;;;;;;;8.43;4.15;;;;;;;;;;6212540;23;20047;-89
2023/04/27 15:28:21;;;;;;;7.43;4.07;;;;;;;;;;6212889;23;20015;-88
2023/04/27 15:31:06;;;;;;;10.95;5.00;;;;;;;;;;6190476;23;20019;-88
2023/04/27 15:33:52;;;;;;;8.57;4.93;;;;;;;;;;6213761;23;20039;-88
2023/04/27 15:36:37;;;;;;;8.52;4.90;;;;;;;;;;6213375;23;20470;-91
2023/04/27 15:39:21;;;;;;;9.77;4.55;;;;;;;;;;6213171;23;20023;-87
2023/04/27 15:42:06;;;;;;;9.68;3.92;;;;;;;;;;6187816;23;20343;-89
2023/04/27 15:44:51;;;;;;;8.15;4.82;;;;;;;;;;6215138;23;20020;-96
2023/04/27 15:47:35;;;;;;;6.80;4.47;;;;;;;;;;6219316;23;20016;-89
2023/04/27 15:50:20;;;;;;;7.55;4.85;;;;;;;;;;6193293;23;20075;-89
2023/04/27 15:53:05;;;;;;;8.60;4.40;;;;;;;;;;6171610;23;20023;-89
2023/04/27 15:55:49;;;;;;;9.15;4.45;;;;;;;;;;6170406;23;20066;-88
2023/04/27 15:58:34;;;;;;;16.02;5.00;;;;;;;;;;6192539;23;20051;-88
2023/04/27 16:01:19;;;;;;;8.38;4.88;;;;;;;;;;6192371;23;20442;-88
2023/04/27 16:04:03;;;;;;;8.18;5.00;;;;;;;;;;6191714;23;20156;-88
2023/04/27 16:06:49;;;;;;;10.45;4.85;;;;;;;;;;6170370;23;20015;-89
2023/04/27 16:09:33;;;;;;;7.50;4.88;;;;;;;;;;6192133;23;20059;-87
2023/04/27 16:12:18;;;;;;;13.60;4.65;;;;;;;;;;6192531;23;20019;-89
2023/04/27 16:15:03;;;;;;;8.20;4.93;;;;;;;;;;6214197;23;20027;-90
2023/04/27 16:17:48;;;;;;;9.10;5.00;;;;;;;;;;6192021;23;20051;-88
2023/04/27 16:20:33;;;;;;;11.07;4.75;;;;;;;;;;6192354;23;20461;-89
2023/04/27 16:23:17;;;;;;;14.18;5.40;;;;;;;;;;6195408;23;20383;-89